sensor_id;sensor_type;location;lat;lon;timestamp;P1;durP1;ratioP1;P2;durP2;ratioP2
36671;SDS011;22663;47.412;9.742;2022-12-18T00:01:33;43.00;;;18.03;;
36671;SDS011;22663;47.412;9.742;2022-12-18T00:04:00;44.13;;;20.17;;
36671;SDS011;22663;47.412;9.742;2022-12-18T00:06:27;39.97;;;19.73;;
36671;SDS011;22663;47.412;9.742;2022-12-18T00:08:54;41.27;;;19.07;;
36671;SDS011;22663;47.412;9.742;2022-12-18T00:11:22;34.60;;;18.53;;
36671;SDS011;22663;47.412;9.742;2022-12-18T00:13:49;33.60;;;17.60;;
36671;SDS011;22663;47.412;9.742;2022-12-18T00:16:17;49.30;;;21.60;;
36671;SDS011;22663;47.412;9.742;2022-12-18T00:18:45;41.10;;;20.07;;
36671;SDS011;22663;47.412;9.742;2022-12-18T00:21:12;41.30;;;19.57;;
36671;SDS011;22663;47.412;9.742;2022-12-18T00:23:39;38.80;;;19.70;;
36671;SDS011;22663;47.412;9.742;2022-12-18T00:26:06;45.70;;;21.27;;
36671;SDS011;22663;47.412;9.742;2022-12-18T00:28:33;44.90;;;19.23;;
36671;SDS011;22663;47.412;9.742;2022-12-18T00:31:03;52.47;;;21.30;;
36671;SDS011;22663;47.412;9.742;2022-12-18T00:33:30;49.70;;;22.27;;
36671;SDS011;22663;47.412;9.742;2022-12-18T00:36:06;47.80;;;21.47;;
36671;SDS011;22663;47.412;9.742;2022-12-18T00:38:33;46.23;;;20.03;;
36671;SDS011;22663;47.412;9.742;2022-12-18T00:41:00;48.03;;;20.63;;
36671;SDS011;22663;47.412;9.742;2022-12-18T00:43:26;44.67;;;21.10;;
36671;SDS011;22663;47.412;9.742;2022-12-18T00:45:52;51.17;;;21.27;;
36671;SDS011;22663;47.412;9.742;2022-12-18T00:48:18;47.63;;;20.33;;
36671;SDS011;22663;47.412;9.742;2022-12-18T00:50:44;40.17;;;17.13;;
36671;SDS011;22663;47.412;9.742;2022-12-18T00:53:11;38.07;;;17.60;;
36671;SDS011;22663;47.412;9.742;2022-12-18T00:55:37;41.47;;;17.77;;
36671;SDS011;22663;47.412;9.742;2022-12-18T00:58:04;37.40;;;16.57;;
36671;SDS011;22663;47.412;9.742;2022-12-18T01:00:30;37.87;;;17.03;;
36671;SDS011;22663;47.412;9.742;2022-12-18T01:02:56;38.87;;;16.30;;
36671;SDS011;22663;47.412;9.742;2022-12-18T01:05:23;49.53;;;19.07;;
36671;SDS011;22663;47.412;9.742;2022-12-18T01:07:49;36.37;;;16.60;;
36671;SDS011;22663;47.412;9.742;2022-12-18T01:10:15;39.87;;;18.20;;
36671;SDS011;22663;47.412;9.742;2022-12-18T01:12:41;32.53;;;16.43;;
36671;SDS011;22663;47.412;9.742;2022-12-18T01:15:08;42.23;;;18.70;;
36671;SDS011;22663;47.412;9.742;2022-12-18T01:17:34;41.97;;;18.57;;
36671;SDS011;22663;47.412;9.742;2022-12-18T01:20:00;48.87;;;19.93;;
36671;SDS011;22663;47.412;9.742;2022-12-18T01:22:26;41.50;;;18.67;;
36671;SDS011;22663;47.412;9.742;2022-12-18T01:24:52;53.60;;;21.80;;
36671;SDS011;22663;47.412;9.742;2022-12-18T01:27:18;48.23;;;21.53;;
36671;SDS011;22663;47.412;9.742;2022-12-18T01:29:44;47.97;;;20.60;;
36671;SDS011;22663;47.412;9.742;2022-12-18T01:32:10;42.80;;;20.37;;
36671;SDS011;22663;47.412;9.742;2022-12-18T01:34:36;45.17;;;19.70;;
36671;SDS011;22663;47.412;9.742;2022-12-18T01:37:04;48.37;;;19.47;;
36671;SDS011;22663;47.412;9.742;2022-12-18T01:39:30;45.47;;;20.57;;
36671;SDS011;22663;47.412;9.742;2022-12-18T01:41:57;45.83;;;18.67;;
36671;SDS011;22663;47.412;9.742;2022-12-18T01:47:36;44.77;;;19.20;;
36671;SDS011;22663;47.412;9.742;2022-12-18T01:50:06;39.27;;;17.00;;
36671;SDS011;22663;47.412;9.742;2022-12-18T01:52:32;42.92;;;20.88;;
36671;SDS011;22663;47.412;9.742;2022-12-18T01:54:59;42.23;;;19.27;;
36671;SDS011;22663;47.412;9.742;2022-12-18T01:57:26;41.27;;;19.67;;
36671;SDS011;22663;47.412;9.742;2022-12-18T01:59:53;46.77;;;20.13;;
36671;SDS011;22663;47.412;9.742;2022-12-18T02:02:20;37.27;;;19.40;;
36671;SDS011;22663;47.412;9.742;2022-12-18T02:04:46;47.23;;;21.37;;
36671;SDS011;22663;47.412;9.742;2022-12-18T02:09:45;49.37;;;23.87;;
36671;SDS011;22663;47.412;9.742;2022-12-18T02:12:17;40.83;;;20.53;;
36671;SDS011;22663;47.412;9.742;2022-12-18T02:17:19;46.10;;;21.67;;
36671;SDS011;22663;47.412;9.742;2022-12-18T02:19:48;54.70;;;22.20;;
36671;SDS011;22663;47.412;9.742;2022-12-18T02:27:15;48.23;;;22.17;;
36671;SDS011;22663;47.412;9.742;2022-12-18T02:29:44;46.00;;;20.97;;
36671;SDS011;22663;47.412;9.742;2022-12-18T02:32:14;47.53;;;21.53;;
36671;SDS011;22663;47.412;9.742;2022-12-18T02:34:41;47.20;;;21.70;;
36671;SDS011;22663;47.412;9.742;2022-12-18T02:37:10;48.17;;;21.13;;
36671;SDS011;22663;47.412;9.742;2022-12-18T02:39:38;47.30;;;19.93;;
36671;SDS011;22663;47.412;9.742;2022-12-18T02:42:06;55.37;;;24.47;;
36671;SDS011;22663;47.412;9.742;2022-12-18T02:44:33;52.67;;;22.93;;
36671;SDS011;22663;47.412;9.742;2022-12-18T02:46:59;50.57;;;22.60;;
36671;SDS011;22663;47.412;9.742;2022-12-18T02:49:34;54.47;;;21.97;;
36671;SDS011;22663;47.412;9.742;2022-12-18T02:57:41;30.47;;;13.80;;
36671;SDS011;22663;47.412;9.742;2022-12-18T03:00:11;35.83;;;16.67;;
36671;SDS011;22663;47.412;9.742;2022-12-18T03:02:48;35.13;;;14.87;;
36671;SDS011;22663;47.412;9.742;2022-12-18T03:05:24;35.67;;;15.80;;
36671;SDS011;22663;47.412;9.742;2022-12-18T03:07:57;39.43;;;16.83;;
36671;SDS011;22663;47.412;9.742;2022-12-18T03:10:25;34.47;;;14.57;;
36671;SDS011;22663;47.412;9.742;2022-12-18T03:12:53;33.73;;;13.80;;
36671;SDS011;22663;47.412;9.742;2022-12-18T03:15:24;38.03;;;16.13;;
36671;SDS011;22663;47.412;9.742;2022-12-18T03:18:04;38.57;;;14.77;;
36671;SDS011;22663;47.412;9.742;2022-12-18T03:20:32;32.90;;;14.80;;
36671;SDS011;22663;47.412;9.742;2022-12-18T03:23:05;35.57;;;16.93;;
36671;SDS011;22663;47.412;9.742;2022-12-18T03:25:33;36.37;;;14.73;;
36671;SDS011;22663;47.412;9.742;2022-12-18T03:28:00;31.83;;;14.83;;
36671;SDS011;22663;47.412;9.742;2022-12-18T03:30:30;36.43;;;15.53;;
36671;SDS011;22663;47.412;9.742;2022-12-18T03:35:28;36.60;;;15.10;;
36671;SDS011;22663;47.412;9.742;2022-12-18T03:37:56;36.40;;;16.00;;
36671;SDS011;22663;47.412;9.742;2022-12-18T03:40:24;32.43;;;15.53;;
36671;SDS011;22663;47.412;9.742;2022-12-18T03:42:53;34.20;;;15.90;;
36671;SDS011;22663;47.412;9.742;2022-12-18T03:45:42;30.00;;;15.30;;
36671;SDS011;22663;47.412;9.742;2022-12-18T03:48:14;32.70;;;14.43;;
36671;SDS011;22663;47.412;9.742;2022-12-18T03:56:03;34.07;;;14.63;;
36671;SDS011;22663;47.412;9.742;2022-12-18T03:58:30;33.87;;;14.97;;
36671;SDS011;22663;47.412;9.742;2022-12-18T04:00:58;33.43;;;14.80;;
36671;SDS011;22663;47.412;9.742;2022-12-18T04:03:25;30.07;;;13.37;;
36671;SDS011;22663;47.412;9.742;2022-12-18T04:05:52;30.80;;;14.73;;
36671;SDS011;22663;47.412;9.742;2022-12-18T04:08:20;37.10;;;14.93;;
36671;SDS011;22663;47.412;9.742;2022-12-18T04:10:47;27.80;;;13.30;;
36671;SDS011;22663;47.412;9.742;2022-12-18T04:13:21;30.00;;;13.80;;
36671;SDS011;22663;47.412;9.742;2022-12-18T04:15:47;29.43;;;13.27;;
36671;SDS011;22663;47.412;9.742;2022-12-18T04:18:13;27.43;;;13.53;;
36671;SDS011;22663;47.412;9.742;2022-12-18T04:20:39;26.77;;;12.57;;
36671;SDS011;22663;47.412;9.742;2022-12-18T04:23:05;29.33;;;14.50;;
36671;SDS011;22663;47.412;9.742;2022-12-18T04:25:31;32.80;;;13.77;;
36671;SDS011;22663;47.412;9.742;2022-12-18T04:27:57;29.80;;;13.67;;
36671;SDS011;22663;47.412;9.742;2022-12-18T04:30:23;29.53;;;14.27;;
36671;SDS011;22663;47.412;9.742;2022-12-18T04:32:49;32.00;;;14.80;;
36671;SDS011;22663;47.412;9.742;2022-12-18T04:35:15;30.00;;;14.27;;
36671;SDS011;22663;47.412;9.742;2022-12-18T04:37:41;34.10;;;15.77;;
36671;SDS011;22663;47.412;9.742;2022-12-18T04:40:08;36.93;;;15.03;;
36671;SDS011;22663;47.412;9.742;2022-12-18T04:42:34;30.37;;;14.57;;
36671;SDS011;22663;47.412;9.742;2022-12-18T04:45:00;35.43;;;15.03;;
36671;SDS011;22663;47.412;9.742;2022-12-18T04:47:26;31.37;;;14.47;;
36671;SDS011;22663;47.412;9.742;2022-12-18T04:49:52;27.17;;;13.47;;
36671;SDS011;22663;47.412;9.742;2022-12-18T04:52:18;26.80;;;12.40;;
36671;SDS011;22663;47.412;9.742;2022-12-18T04:54:44;32.77;;;14.73;;
36671;SDS011;22663;47.412;9.742;2022-12-18T04:57:10;32.57;;;13.63;;
36671;SDS011;22663;47.412;9.742;2022-12-18T04:59:36;32.10;;;14.43;;
36671;SDS011;22663;47.412;9.742;2022-12-18T05:02:02;30.67;;;14.60;;
36671;SDS011;22663;47.412;9.742;2022-12-18T05:04:28;31.37;;;14.63;;
36671;SDS011;22663;47.412;9.742;2022-12-18T05:06:54;26.40;;;12.20;;
36671;SDS011;22663;47.412;9.742;2022-12-18T05:09:20;34.30;;;13.70;;
36671;SDS011;22663;47.412;9.742;2022-12-18T05:11:46;30.03;;;13.50;;
36671;SDS011;22663;47.412;9.742;2022-12-18T05:14:12;31.50;;;13.87;;
36671;SDS011;22663;47.412;9.742;2022-12-18T05:16:38;26.33;;;13.00;;
36671;SDS011;22663;47.412;9.742;2022-12-18T05:19:04;31.90;;;13.67;;
36671;SDS011;22663;47.412;9.742;2022-12-18T05:21:30;28.30;;;13.30;;
36671;SDS011;22663;47.412;9.742;2022-12-18T05:23:57;29.90;;;12.50;;
36671;SDS011;22663;47.412;9.742;2022-12-18T05:26:23;27.77;;;12.97;;
36671;SDS011;22663;47.412;9.742;2022-12-18T05:28:49;28.53;;;12.53;;
36671;SDS011;22663;47.412;9.742;2022-12-18T05:31:15;32.47;;;13.30;;
36671;SDS011;22663;47.412;9.742;2022-12-18T05:33:41;29.83;;;13.87;;
36671;SDS011;22663;47.412;9.742;2022-12-18T05:36:07;27.67;;;12.60;;
36671;SDS011;22663;47.412;9.742;2022-12-18T05:38:34;25.87;;;12.17;;
36671;SDS011;22663;47.412;9.742;2022-12-18T05:41:01;26.20;;;12.63;;
36671;SDS011;22663;47.412;9.742;2022-12-18T05:43:27;26.83;;;12.43;;
36671;SDS011;22663;47.412;9.742;2022-12-18T05:45:54;29.00;;;12.20;;
36671;SDS011;22663;47.412;9.742;2022-12-18T05:48:21;27.87;;;12.50;;
36671;SDS011;22663;47.412;9.742;2022-12-18T05:50:48;29.93;;;13.67;;
36671;SDS011;22663;47.412;9.742;2022-12-18T05:53:15;28.87;;;13.93;;
36671;SDS011;22663;47.412;9.742;2022-12-18T05:55:41;34.00;;;15.20;;
36671;SDS011;22663;47.412;9.742;2022-12-18T05:58:09;33.93;;;13.57;;
36671;SDS011;22663;47.412;9.742;2022-12-18T06:00:36;30.80;;;12.77;;
36671;SDS011;22663;47.412;9.742;2022-12-18T06:03:05;36.40;;;15.57;;
36671;SDS011;22663;47.412;9.742;2022-12-18T06:05:34;28.53;;;13.40;;
36671;SDS011;22663;47.412;9.742;2022-12-18T06:08:01;25.63;;;11.03;;
36671;SDS011;22663;47.412;9.742;2022-12-18T06:10:27;31.90;;;12.37;;
36671;SDS011;22663;47.412;9.742;2022-12-18T06:12:53;22.33;;;11.17;;
36671;SDS011;22663;47.412;9.742;2022-12-18T06:15:19;28.77;;;11.63;;
36671;SDS011;22663;47.412;9.742;2022-12-18T06:17:45;22.73;;;11.07;;
36671;SDS011;22663;47.412;9.742;2022-12-18T06:20:11;25.17;;;10.33;;
36671;SDS011;22663;47.412;9.742;2022-12-18T06:22:37;27.10;;;11.47;;
36671;SDS011;22663;47.412;9.742;2022-12-18T06:25:03;21.83;;;11.27;;
36671;SDS011;22663;47.412;9.742;2022-12-18T06:27:30;23.30;;;11.17;;
36671;SDS011;22663;47.412;9.742;2022-12-18T06:29:58;24.17;;;10.33;;
36671;SDS011;22663;47.412;9.742;2022-12-18T06:32:24;27.10;;;11.97;;
36671;SDS011;22663;47.412;9.742;2022-12-18T06:34:50;27.20;;;12.03;;
36671;SDS011;22663;47.412;9.742;2022-12-18T06:37:16;29.00;;;12.70;;
36671;SDS011;22663;47.412;9.742;2022-12-18T06:39:42;22.53;;;10.63;;
36671;SDS011;22663;47.412;9.742;2022-12-18T06:42:08;23.37;;;10.07;;
36671;SDS011;22663;47.412;9.742;2022-12-18T06:44:35;21.33;;;9.77;;
36671;SDS011;22663;47.412;9.742;2022-12-18T06:47:01;23.90;;;11.10;;
36671;SDS011;22663;47.412;9.742;2022-12-18T06:49:27;22.37;;;10.93;;
36671;SDS011;22663;47.412;9.742;2022-12-18T06:51:53;27.87;;;10.90;;
36671;SDS011;22663;47.412;9.742;2022-12-18T06:54:19;35.50;;;13.70;;
36671;SDS011;22663;47.412;9.742;2022-12-18T06:56:45;34.40;;;13.90;;
36671;SDS011;22663;47.412;9.742;2022-12-18T06:59:12;31.80;;;12.77;;
36671;SDS011;22663;47.412;9.742;2022-12-18T07:01:38;30.30;;;10.27;;
36671;SDS011;22663;47.412;9.742;2022-12-18T07:04:04;33.40;;;12.80;;
36671;SDS011;22663;47.412;9.742;2022-12-18T07:06:30;35.27;;;14.03;;
36671;SDS011;22663;47.412;9.742;2022-12-18T07:08:56;33.10;;;13.67;;
36671;SDS011;22663;47.412;9.742;2022-12-18T07:11:23;28.20;;;11.77;;
36671;SDS011;22663;47.412;9.742;2022-12-18T07:13:49;31.20;;;13.90;;
36671;SDS011;22663;47.412;9.742;2022-12-18T07:16:16;33.63;;;13.63;;
36671;SDS011;22663;47.412;9.742;2022-12-18T07:18:43;30.53;;;12.97;;
36671;SDS011;22663;47.412;9.742;2022-12-18T07:21:10;33.33;;;13.97;;
36671;SDS011;22663;47.412;9.742;2022-12-18T07:23:36;33.83;;;13.97;;
36671;SDS011;22663;47.412;9.742;2022-12-18T07:26:07;28.93;;;12.70;;
36671;SDS011;22663;47.412;9.742;2022-12-18T07:28:34;31.47;;;13.37;;
36671;SDS011;22663;47.412;9.742;2022-12-18T07:31:07;34.40;;;13.23;;
36671;SDS011;22663;47.412;9.742;2022-12-18T07:33:36;34.83;;;14.87;;
36671;SDS011;22663;47.412;9.742;2022-12-18T07:36:02;32.50;;;13.20;;
36671;SDS011;22663;47.412;9.742;2022-12-18T07:38:29;34.63;;;14.20;;
36671;SDS011;22663;47.412;9.742;2022-12-18T07:41:00;30.07;;;12.07;;
36671;SDS011;22663;47.412;9.742;2022-12-18T07:43:26;27.17;;;12.87;;
36671;SDS011;22663;47.412;9.742;2022-12-18T07:45:52;27.27;;;12.03;;
36671;SDS011;22663;47.412;9.742;2022-12-18T07:48:18;31.27;;;13.53;;
36671;SDS011;22663;47.412;9.742;2022-12-18T07:50:44;33.10;;;12.57;;
36671;SDS011;22663;47.412;9.742;2022-12-18T07:53:10;28.27;;;12.87;;
36671;SDS011;22663;47.412;9.742;2022-12-18T07:55:36;26.57;;;12.33;;
36671;SDS011;22663;47.412;9.742;2022-12-18T07:58:03;25.87;;;11.67;;
36671;SDS011;22663;47.412;9.742;2022-12-18T08:00:30;27.67;;;12.00;;
36671;SDS011;22663;47.412;9.742;2022-12-18T08:02:56;29.63;;;11.67;;
36671;SDS011;22663;47.412;9.742;2022-12-18T08:05:22;26.63;;;12.77;;
36671;SDS011;22663;47.412;9.742;2022-12-18T08:07:48;26.23;;;11.50;;
36671;SDS011;22663;47.412;9.742;2022-12-18T08:10:15;31.70;;;12.93;;
36671;SDS011;22663;47.412;9.742;2022-12-18T08:12:41;27.97;;;12.60;;
36671;SDS011;22663;47.412;9.742;2022-12-18T08:15:07;22.90;;;12.43;;
36671;SDS011;22663;47.412;9.742;2022-12-18T08:17:33;24.40;;;10.93;;
36671;SDS011;22663;47.412;9.742;2022-12-18T08:19:59;23.27;;;9.80;;
36671;SDS011;22663;47.412;9.742;2022-12-18T08:22:25;22.37;;;11.07;;
36671;SDS011;22663;47.412;9.742;2022-12-18T08:24:51;22.90;;;9.93;;
36671;SDS011;22663;47.412;9.742;2022-12-18T08:27:18;26.93;;;11.27;;
36671;SDS011;22663;47.412;9.742;2022-12-18T08:29:44;24.70;;;10.43;;
36671;SDS011;22663;47.412;9.742;2022-12-18T08:32:10;21.20;;;9.57;;
36671;SDS011;22663;47.412;9.742;2022-12-18T08:34:36;22.93;;;9.70;;
36671;SDS011;22663;47.412;9.742;2022-12-18T08:37:02;19.17;;;9.03;;
36671;SDS011;22663;47.412;9.742;2022-12-18T08:39:28;15.20;;;7.97;;
36671;SDS011;22663;47.412;9.742;2022-12-18T08:41:54;18.77;;;8.33;;
36671;SDS011;22663;47.412;9.742;2022-12-18T08:44:39;16.97;;;8.67;;
36671;SDS011;22663;47.412;9.742;2022-12-18T08:47:06;19.67;;;8.57;;
36671;SDS011;22663;47.412;9.742;2022-12-18T08:49:33;21.90;;;9.07;;
36671;SDS011;22663;47.412;9.742;2022-12-18T08:51:59;20.20;;;8.70;;
36671;SDS011;22663;47.412;9.742;2022-12-18T08:54:25;15.77;;;8.33;;
36671;SDS011;22663;47.412;9.742;2022-12-18T08:56:51;17.60;;;8.07;;
36671;SDS011;22663;47.412;9.742;2022-12-18T08:59:18;20.57;;;8.87;;
36671;SDS011;22663;47.412;9.742;2022-12-18T09:01:44;17.60;;;7.80;;
36671;SDS011;22663;47.412;9.742;2022-12-18T09:04:11;18.27;;;8.50;;
36671;SDS011;22663;47.412;9.742;2022-12-18T09:06:37;17.37;;;8.43;;
36671;SDS011;22663;47.412;9.742;2022-12-18T09:09:03;16.77;;;7.90;;
36671;SDS011;22663;47.412;9.742;2022-12-18T09:11:30;18.97;;;8.53;;
36671;SDS011;22663;47.412;9.742;2022-12-18T09:13:58;17.50;;;8.07;;
36671;SDS011;22663;47.412;9.742;2022-12-18T09:16:24;18.43;;;9.00;;
36671;SDS011;22663;47.412;9.742;2022-12-18T09:18:51;19.10;;;8.93;;
36671;SDS011;22663;47.412;9.742;2022-12-18T09:21:24;17.83;;;8.17;;
36671;SDS011;22663;47.412;9.742;2022-12-18T09:23:50;16.93;;;8.50;;
36671;SDS011;22663;47.412;9.742;2022-12-18T09:26:16;17.73;;;7.73;;
36671;SDS011;22663;47.412;9.742;2022-12-18T09:28:42;14.60;;;7.93;;
36671;SDS011;22663;47.412;9.742;2022-12-18T09:31:10;15.97;;;8.33;;
36671;SDS011;22663;47.412;9.742;2022-12-18T09:33:36;16.47;;;8.50;;
36671;SDS011;22663;47.412;9.742;2022-12-18T09:36:04;17.23;;;7.77;;
36671;SDS011;22663;47.412;9.742;2022-12-18T09:38:30;16.43;;;8.33;;
36671;SDS011;22663;47.412;9.742;2022-12-18T09:40:59;17.90;;;8.67;;
36671;SDS011;22663;47.412;9.742;2022-12-18T09:45:59;20.77;;;9.90;;
36671;SDS011;22663;47.412;9.742;2022-12-18T09:48:27;20.23;;;9.20;;
36671;SDS011;22663;47.412;9.742;2022-12-18T09:50:55;19.37;;;9.07;;
36671;SDS011;22663;47.412;9.742;2022-12-18T09:53:25;19.47;;;8.87;;
36671;SDS011;22663;47.412;9.742;2022-12-18T09:55:52;17.40;;;8.20;;
36671;SDS011;22663;47.412;9.742;2022-12-18T09:58:30;17.50;;;8.50;;
36671;SDS011;22663;47.412;9.742;2022-12-18T10:00:57;16.90;;;8.17;;
36671;SDS011;22663;47.412;9.742;2022-12-18T10:03:23;18.10;;;9.13;;
36671;SDS011;22663;47.412;9.742;2022-12-18T10:05:53;16.13;;;7.73;;
36671;SDS011;22663;47.412;9.742;2022-12-18T10:09:07;14.30;;;7.85;;
36671;SDS011;22663;47.412;9.742;2022-12-18T10:13:39;15.85;;;8.25;;
36671;SDS011;22663;47.412;9.742;2022-12-18T10:16:17;17.25;;;7.85;;
36671;SDS011;22663;47.412;9.742;2022-12-18T10:19:00;14.45;;;7.07;;
36671;SDS011;22663;47.412;9.742;2022-12-18T10:21:39;13.88;;;7.90;;
36671;SDS011;22663;47.412;9.742;2022-12-18T10:24:18;13.38;;;7.32;;
36671;SDS011;22663;47.412;9.742;2022-12-18T10:26:48;15.13;;;8.25;;
36671;SDS011;22663;47.412;9.742;2022-12-18T10:29:15;14.27;;;8.07;;
36671;SDS011;22663;47.412;9.742;2022-12-18T10:31:41;14.00;;;8.00;;
36671;SDS011;22663;47.412;9.742;2022-12-18T10:34:11;15.13;;;8.00;;
36671;SDS011;22663;47.412;9.742;2022-12-18T10:36:37;12.85;;;7.25;;
36671;SDS011;22663;47.412;9.742;2022-12-18T10:41:42;17.30;;;8.00;;
36671;SDS011;22663;47.412;9.742;2022-12-18T10:44:10;17.50;;;8.43;;
36671;SDS011;22663;47.412;9.742;2022-12-18T10:46:36;14.68;;;7.80;;
36671;SDS011;22663;47.412;9.742;2022-12-18T10:49:03;15.20;;;7.88;;
36671;SDS011;22663;47.412;9.742;2022-12-18T10:51:34;15.32;;;8.27;;
36671;SDS011;22663;47.412;9.742;2022-12-18T10:54:01;15.55;;;8.02;;
36671;SDS011;22663;47.412;9.742;2022-12-18T10:56:28;16.38;;;8.45;;
36671;SDS011;22663;47.412;9.742;2022-12-18T10:58:56;14.43;;;7.82;;
36671;SDS011;22663;47.412;9.742;2022-12-18T11:01:23;16.70;;;8.35;;
36671;SDS011;22663;47.412;9.742;2022-12-18T11:06:19;18.52;;;9.27;;
36671;SDS011;22663;47.412;9.742;2022-12-18T11:09:03;15.73;;;9.38;;
36671;SDS011;22663;47.412;9.742;2022-12-18T11:11:29;18.50;;;8.95;;
36671;SDS011;22663;47.412;9.742;2022-12-18T11:13:58;17.52;;;9.27;;
36671;SDS011;22663;47.412;9.742;2022-12-18T11:16:25;18.40;;;10.13;;
36671;SDS011;22663;47.412;9.742;2022-12-18T11:18:51;18.38;;;9.07;;
36671;SDS011;22663;47.412;9.742;2022-12-18T11:21:18;19.27;;;9.90;;
36671;SDS011;22663;47.412;9.742;2022-12-18T11:23:49;22.17;;;9.70;;
36671;SDS011;22663;47.412;9.742;2022-12-18T11:26:15;20.45;;;10.00;;
36671;SDS011;22663;47.412;9.742;2022-12-18T11:29:07;21.27;;;10.98;;
36671;SDS011;22663;47.412;9.742;2022-12-18T11:31:33;19.55;;;9.57;;
36671;SDS011;22663;47.412;9.742;2022-12-18T11:34:01;23.23;;;10.98;;
36671;SDS011;22663;47.412;9.742;2022-12-18T11:36:30;20.88;;;10.60;;
36671;SDS011;22663;47.412;9.742;2022-12-18T11:38:58;21.58;;;10.35;;
36671;SDS011;22663;47.412;9.742;2022-12-18T11:41:36;20.17;;;10.45;;
36671;SDS011;22663;47.412;9.742;2022-12-18T11:44:24;22.90;;;10.88;;
36671;SDS011;22663;47.412;9.742;2022-12-18T11:47:00;24.23;;;12.05;;
36671;SDS011;22663;47.412;9.742;2022-12-18T11:49:33;20.88;;;10.00;;
36671;SDS011;22663;47.412;9.742;2022-12-18T11:52:14;20.70;;;10.32;;
36671;SDS011;22663;47.412;9.742;2022-12-18T11:54:42;22.95;;;10.82;;
36671;SDS011;22663;47.412;9.742;2022-12-18T11:59:40;20.42;;;9.75;;
36671;SDS011;22663;47.412;9.742;2022-12-18T12:10:23;19.92;;;9.60;;
36671;SDS011;22663;47.412;9.742;2022-12-18T12:20:49;20.52;;;10.05;;
36671;SDS011;22663;47.412;9.742;2022-12-18T12:26:07;23.83;;;10.77;;
36671;SDS011;22663;47.412;9.742;2022-12-18T12:34:23;19.85;;;9.52;;
36671;SDS011;22663;47.412;9.742;2022-12-18T12:39:18;22.35;;;10.63;;
36671;SDS011;22663;47.412;9.742;2022-12-18T12:41:46;18.48;;;9.50;;
36671;SDS011;22663;47.412;9.742;2022-12-18T12:44:35;19.88;;;9.45;;
36671;SDS011;22663;47.412;9.742;2022-12-18T12:47:11;19.42;;;9.93;;
36671;SDS011;22663;47.412;9.742;2022-12-18T12:49:39;18.17;;;9.70;;
36671;SDS011;22663;47.412;9.742;2022-12-18T12:52:11;20.10;;;10.05;;
36671;SDS011;22663;47.412;9.742;2022-12-18T12:54:39;18.55;;;9.77;;
36671;SDS011;22663;47.412;9.742;2022-12-18T13:02:14;19.20;;;9.55;;
36671;SDS011;22663;47.412;9.742;2022-12-18T13:04:46;21.42;;;10.88;;
36671;SDS011;22663;47.412;9.742;2022-12-18T13:13:01;23.65;;;10.23;;
36671;SDS011;22663;47.412;9.742;2022-12-18T13:15:30;20.25;;;10.50;;
36671;SDS011;22663;47.412;9.742;2022-12-18T13:20:53;18.30;;;9.30;;
36671;SDS011;22663;47.412;9.742;2022-12-18T13:23:34;18.67;;;10.50;;
36671;SDS011;22663;47.412;9.742;2022-12-18T13:33:57;21.05;;;10.57;;
36671;SDS011;22663;47.412;9.742;2022-12-18T13:36:35;18.27;;;9.80;;
36671;SDS011;22663;47.412;9.742;2022-12-18T13:41:43;20.83;;;10.25;;
36671;SDS011;22663;47.412;9.742;2022-12-18T13:46:44;18.80;;;9.40;;
36671;SDS011;22663;47.412;9.742;2022-12-18T13:51:41;18.83;;;10.15;;
36671;SDS011;22663;47.412;9.742;2022-12-18T13:56:42;21.00;;;10.68;;
36671;SDS011;22663;47.412;9.742;2022-12-18T14:01:35;20.65;;;9.68;;
36671;SDS011;22663;47.412;9.742;2022-12-18T14:04:11;19.08;;;10.18;;
36671;SDS011;22663;47.412;9.742;2022-12-18T14:06:38;21.35;;;10.98;;
36671;SDS011;22663;47.412;9.742;2022-12-18T14:09:04;20.35;;;10.07;;
36671;SDS011;22663;47.412;9.742;2022-12-18T14:11:30;22.33;;;9.93;;
36671;SDS011;22663;47.412;9.742;2022-12-18T14:13:56;23.65;;;11.60;;
36671;SDS011;22663;47.412;9.742;2022-12-18T14:16:22;19.93;;;9.63;;
36671;SDS011;22663;47.412;9.742;2022-12-18T14:18:56;21.77;;;10.63;;
36671;SDS011;22663;47.412;9.742;2022-12-18T14:21:24;22.58;;;10.45;;
36671;SDS011;22663;47.412;9.742;2022-12-18T14:26:33;17.67;;;10.07;;
36671;SDS011;22663;47.412;9.742;2022-12-18T14:29:00;22.50;;;11.27;;
36671;SDS011;22663;47.412;9.742;2022-12-18T14:31:28;22.47;;;10.43;;
36671;SDS011;22663;47.412;9.742;2022-12-18T14:33:54;20.70;;;10.50;;
36671;SDS011;22663;47.412;9.742;2022-12-18T14:36:22;21.57;;;10.70;;
36671;SDS011;22663;47.412;9.742;2022-12-18T14:38:58;21.67;;;11.10;;
36671;SDS011;22663;47.412;9.742;2022-12-18T14:41:24;22.70;;;10.57;;
36671;SDS011;22663;47.412;9.742;2022-12-18T14:43:51;22.57;;;11.10;;
36671;SDS011;22663;47.412;9.742;2022-12-18T14:48:53;21.80;;;11.33;;
36671;SDS011;22663;47.412;9.742;2022-12-18T14:51:20;21.87;;;11.40;;
36671;SDS011;22663;47.412;9.742;2022-12-18T14:53:47;22.90;;;9.93;;
36671;SDS011;22663;47.412;9.742;2022-12-18T14:59:02;23.23;;;11.30;;
36671;SDS011;22663;47.412;9.742;2022-12-18T15:01:36;26.73;;;11.83;;
36671;SDS011;22663;47.412;9.742;2022-12-18T15:04:03;23.77;;;12.07;;
36671;SDS011;22663;47.412;9.742;2022-12-18T15:08:59;27.23;;;11.43;;
36671;SDS011;22663;47.412;9.742;2022-12-18T15:13:57;27.47;;;12.10;;
36671;SDS011;22663;47.412;9.742;2022-12-18T15:16:23;26.13;;;13.40;;
36671;SDS011;22663;47.412;9.742;2022-12-18T15:18:49;29.10;;;12.97;;
36671;SDS011;22663;47.412;9.742;2022-12-18T15:21:19;22.87;;;11.67;;
36671;SDS011;22663;47.412;9.742;2022-12-18T15:23:51;26.37;;;11.50;;
36671;SDS011;22663;47.412;9.742;2022-12-18T15:26:21;25.58;;;11.88;;
36671;SDS011;22663;47.412;9.742;2022-12-18T15:28:48;25.40;;;12.47;;
36671;SDS011;22663;47.412;9.742;2022-12-18T15:33:41;27.90;;;12.93;;
36671;SDS011;22663;47.412;9.742;2022-12-18T15:36:13;24.00;;;11.13;;
36671;SDS011;22663;47.412;9.742;2022-12-18T15:38:39;26.03;;;11.60;;
36671;SDS011;22663;47.412;9.742;2022-12-18T15:41:06;25.10;;;11.13;;
36671;SDS011;22663;47.412;9.742;2022-12-18T15:43:37;23.07;;;11.10;;
36671;SDS011;22663;47.412;9.742;2022-12-18T15:46:04;24.67;;;11.13;;
36671;SDS011;22663;47.412;9.742;2022-12-18T15:48:32;20.97;;;11.13;;
36671;SDS011;22663;47.412;9.742;2022-12-18T15:51:02;24.93;;;11.83;;
36671;SDS011;22663;47.412;9.742;2022-12-18T15:53:29;24.33;;;11.57;;
36671;SDS011;22663;47.412;9.742;2022-12-18T15:55:56;22.27;;;11.40;;
36671;SDS011;22663;47.412;9.742;2022-12-18T15:58:41;25.03;;;12.60;;
36671;SDS011;22663;47.412;9.742;2022-12-18T16:01:07;25.17;;;12.67;;
36671;SDS011;22663;47.412;9.742;2022-12-18T16:03:34;27.27;;;13.03;;
36671;SDS011;22663;47.412;9.742;2022-12-18T16:06:00;26.13;;;12.20;;
36671;SDS011;22663;47.412;9.742;2022-12-18T16:08:27;26.13;;;12.70;;
36671;SDS011;22663;47.412;9.742;2022-12-18T16:10:54;29.60;;;12.40;;
36671;SDS011;22663;47.412;9.742;2022-12-18T16:13:20;36.87;;;15.33;;
36671;SDS011;22663;47.412;9.742;2022-12-18T16:15:47;29.60;;;15.17;;
36671;SDS011;22663;47.412;9.742;2022-12-18T16:18:13;25.33;;;13.63;;
36671;SDS011;22663;47.412;9.742;2022-12-18T16:20:39;26.30;;;14.47;;
36671;SDS011;22663;47.412;9.742;2022-12-18T16:23:06;29.77;;;13.30;;
36671;SDS011;22663;47.412;9.742;2022-12-18T16:25:32;27.13;;;13.93;;